createdAt,value
2023-01-15T00:01:55.488Z,10.70
2023-01-15T00:04:23.607Z,10.90
2023-01-15T00:06:51.861Z,10.70
2023-01-15T00:09:21.314Z,10.70
2023-01-15T00:11:49.459Z,10.70
2023-01-15T00:14:17.607Z,10.70
2023-01-15T00:16:45.704Z,10.80
2023-01-15T00:19:14.603Z,11.00
2023-01-15T00:21:42.801Z,10.80
2023-01-15T00:24:28.765Z,10.70
2023-01-15T00:27:15.551Z,10.70
2023-01-15T00:29:43.716Z,10.80
2023-01-15T00:32:12.978Z,10.60
2023-01-15T00:34:41.146Z,10.70
2023-01-15T00:37:09.286Z,10.90
2023-01-15T00:39:37.493Z,11.20
2023-01-15T00:42:07.028Z,11.00
2023-01-15T00:44:35.194Z,11.00
2023-01-15T00:47:03.291Z,10.80
2023-01-15T00:49:34.587Z,10.90
2023-01-15T00:52:02.676Z,10.80
2023-01-15T00:54:30.901Z,10.90
2023-01-15T00:56:59.376Z,10.90
2023-01-15T00:59:28.977Z,10.80
2023-01-15T01:01:57.688Z,11.20
2023-01-15T01:04:26.876Z,11.00
2023-01-15T01:06:55.111Z,11.00
2023-01-15T01:09:23.316Z,10.80
2023-01-15T01:11:51.578Z,10.80
2023-01-15T01:14:20.056Z,11.10
2023-01-15T01:16:49.660Z,11.00
2023-01-15T01:19:19.805Z,10.90
2023-01-15T01:21:49.244Z,11.10
2023-01-15T01:24:20.804Z,11.10
2023-01-15T01:26:49.755Z,11.10
2023-01-15T01:29:20.682Z,11.00
2023-01-15T01:31:51.360Z,11.10
2023-01-15T01:34:20.174Z,11.20
2023-01-15T01:36:48.448Z,11.20
2023-01-15T01:39:18.271Z,11.20
2023-01-15T01:41:47.668Z,11.40
2023-01-15T01:44:53.975Z,11.30
2023-01-15T01:47:26.640Z,11.30
2023-01-15T01:50:01.764Z,11.40
2023-01-15T01:52:34.350Z,11.40
2023-01-15T01:55:05.139Z,11.20
2023-01-15T01:57:33.870Z,11.10
2023-01-15T02:00:05.065Z,11.10
2023-01-15T02:02:45.266Z,11.10
2023-01-15T02:05:18.956Z,11.10
2023-01-15T02:07:48.221Z,11.30
2023-01-15T02:10:16.886Z,11.40
2023-01-15T02:12:50.633Z,11.40
2023-01-15T02:15:27.273Z,11.40
2023-01-15T02:18:02.335Z,11.30
2023-01-15T02:20:36.144Z,11.30
2023-01-15T02:23:24.404Z,11.20
2023-01-15T02:26:20.004Z,11.30
2023-01-15T02:28:52.585Z,11.20
2023-01-15T02:31:27.787Z,11.40
2023-01-15T02:34:02.073Z,11.30
2023-01-15T02:36:33.966Z,11.30
2023-01-15T02:39:07.404Z,11.20
2023-01-15T02:41:39.360Z,11.20
2023-01-15T02:44:11.671Z,11.30
2023-01-15T02:46:41.696Z,11.40
2023-01-15T02:49:16.263Z,11.70
2023-01-15T02:51:50.238Z,11.50
2023-01-15T02:54:23.830Z,11.70
2023-01-15T02:56:54.037Z,11.50
2023-01-15T02:59:28.390Z,11.50
2023-01-15T03:02:00.104Z,11.10
2023-01-15T03:04:33.607Z,11.00
2023-01-15T03:07:07.845Z,10.90
2023-01-15T03:09:38.398Z,10.80
2023-01-15T03:12:13.289Z,11.20
2023-01-15T03:14:52.424Z,10.80
2023-01-15T03:17:22.640Z,10.60
2023-01-15T03:19:57.444Z,10.30
2023-01-15T03:22:30.033Z,10.00
2023-01-15T03:25:04.232Z,10.00
2023-01-15T03:27:36.313Z,10.20
2023-01-15T03:30:12.203Z,10.60
2023-01-15T03:32:40.765Z,10.80
2023-01-15T03:35:29.953Z,10.70
2023-01-15T03:37:58.507Z,10.50
2023-01-15T03:40:26.707Z,10.30
2023-01-15T03:43:16.274Z,10.30
2023-01-15T03:45:51.807Z,10.40
2023-01-15T03:48:26.170Z,10.20
2023-01-15T03:51:05.065Z,10.30
2023-01-15T03:53:39.508Z,10.20
2023-01-15T03:56:15.810Z,10.40
2023-01-15T03:58:53.141Z,10.40
2023-01-15T04:01:34.154Z,10.60
2023-01-15T04:04:03.694Z,10.20
2023-01-15T04:06:35.458Z,10.20
2023-01-15T04:09:08.220Z,10.20
2023-01-15T04:11:36.700Z,10.20
2023-01-15T04:14:07.716Z,10.30
2023-01-15T04:16:48.884Z,10.30
2023-01-15T04:19:17.086Z,10.30
2023-01-15T04:22:01.310Z,10.00
2023-01-15T04:24:30.177Z,10.00
2023-01-15T04:26:58.349Z,10.10
2023-01-15T04:29:27.093Z,10.10
2023-01-15T04:31:57.887Z,10.10
2023-01-15T04:34:27.202Z,9.80
2023-01-15T04:36:55.368Z,9.70
2023-01-15T04:39:23.929Z,9.50
2023-01-15T04:42:09.603Z,9.40
2023-01-15T04:44:38.615Z,9.30
2023-01-15T04:47:08.245Z,9.40
2023-01-15T04:49:36.988Z,9.40
2023-01-15T04:52:05.371Z,9.30
2023-01-15T04:54:36.208Z,9.30
2023-01-15T04:57:04.614Z,9.10
2023-01-15T04:59:32.857Z,8.80
2023-01-15T05:02:06.571Z,8.90
2023-01-15T05:04:36.822Z,9.10
2023-01-15T05:07:06.395Z,8.90
2023-01-15T05:09:34.852Z,9.00
2023-01-15T05:12:03.313Z,9.00
2023-01-15T05:14:31.539Z,9.00
2023-01-15T05:16:59.692Z,9.30
2023-01-15T05:19:27.839Z,9.50
2023-01-15T05:21:57.402Z,9.40
2023-01-15T05:24:25.490Z,9.60
2023-01-15T05:26:53.746Z,9.60
2023-01-15T05:29:21.903Z,9.70
2023-01-15T05:31:50.001Z,9.70
2023-01-15T05:34:18.104Z,9.70
2023-01-15T05:36:46.220Z,9.50
2023-01-15T05:39:15.725Z,9.50
2023-01-15T05:41:53.208Z,9.40
2023-01-15T05:44:23.826Z,9.30
2023-01-15T05:46:54.727Z,8.90
2023-01-15T05:49:24.821Z,8.90
2023-01-15T05:51:54.371Z,8.70
2023-01-15T05:54:25.922Z,8.80
2023-01-15T05:56:54.547Z,8.70
2023-01-15T05:59:25.348Z,8.50
2023-01-15T06:01:54.354Z,8.50
2023-01-15T06:04:23.132Z,8.50
2023-01-15T06:06:52.718Z,8.40
2023-01-15T06:09:23.020Z,8.30
2023-01-15T06:11:54.072Z,8.20
2023-01-15T06:14:22.365Z,8.50
2023-01-15T06:16:50.593Z,8.30
2023-01-15T06:19:18.823Z,8.60
2023-01-15T06:21:47.129Z,9.00
2023-01-15T06:24:16.725Z,9.00
2023-01-15T06:26:44.901Z,8.90
2023-01-15T06:29:18.538Z,8.60
2023-01-15T06:31:46.742Z,8.50
2023-01-15T06:34:14.964Z,8.50
2023-01-15T06:36:43.069Z,8.70
2023-01-15T06:39:11.678Z,8.60
2023-01-15T06:41:59.759Z,8.70
2023-01-15T06:44:46.723Z,8.50
2023-01-15T06:47:23.029Z,8.40
2023-01-15T06:49:54.199Z,8.30
2023-01-15T06:52:22.402Z,8.20
2023-01-15T06:54:50.542Z,8.40
2023-01-15T06:57:19.858Z,8.50
2023-01-15T06:59:49.808Z,8.60
2023-01-15T07:02:18.573Z,8.60
2023-01-15T07:04:47.819Z,8.40
2023-01-15T07:07:16.292Z,8.20
2023-01-15T07:09:44.608Z,8.20
2023-01-15T07:12:12.806Z,8.10
2023-01-15T07:14:40.971Z,8.30
2023-01-15T07:17:10.471Z,8.10
2023-01-15T07:19:38.807Z,8.20
2023-01-15T07:22:07.264Z,8.10
2023-01-15T07:24:35.742Z,8.10
2023-01-15T07:27:04.000Z,8.10
2023-01-15T07:29:32.131Z,8.20
2023-01-15T07:32:00.349Z,8.50
2023-01-15T07:34:29.936Z,8.60
2023-01-15T07:36:58.110Z,8.50
2023-01-15T07:39:26.256Z,8.60
2023-01-15T07:42:11.819Z,8.40
2023-01-15T07:44:59.978Z,8.50
2023-01-15T07:47:46.284Z,8.40
2023-01-15T07:50:17.739Z,8.50
2023-01-15T07:52:46.455Z,8.70
2023-01-15T07:55:15.291Z,8.60
2023-01-15T07:57:44.049Z,8.60
2023-01-15T08:00:14.914Z,8.60
2023-01-15T08:02:44.353Z,8.20
2023-01-15T08:05:12.929Z,7.80
2023-01-15T08:07:43.326Z,7.70
2023-01-15T08:10:14.058Z,8.00
2023-01-15T08:12:59.963Z,8.00
2023-01-15T08:15:30.403Z,8.10
2023-01-15T08:17:59.195Z,7.90
2023-01-15T08:20:28.210Z,7.80
2023-01-15T08:22:57.733Z,7.80
2023-01-15T08:25:26.899Z,7.70
2023-01-15T08:27:56.513Z,7.70
2023-01-15T08:30:26.276Z,7.50
2023-01-15T08:32:54.436Z,8.00
2023-01-15T08:35:22.550Z,8.10
2023-01-15T08:37:50.886Z,8.30
2023-01-15T08:40:23.255Z,8.40
2023-01-15T08:42:51.400Z,8.30
2023-01-15T08:45:19.564Z,8.40
2023-01-15T08:47:47.655Z,8.50
2023-01-15T08:50:15.860Z,8.40
2023-01-15T08:52:44.129Z,8.40
2023-01-15T08:55:12.265Z,8.50
2023-01-15T08:57:41.723Z,8.60
2023-01-15T09:00:11.210Z,8.40
2023-01-15T09:02:39.298Z,8.10
2023-01-15T09:05:08.132Z,8.00
2023-01-15T09:07:39.071Z,8.00
2023-01-15T09:10:08.397Z,7.90
2023-01-15T09:12:36.650Z,7.80
2023-01-15T09:15:06.975Z,7.70
2023-01-15T09:17:39.603Z,7.60
2023-01-15T09:20:10.215Z,7.60
2023-01-15T09:22:38.578Z,7.60
2023-01-15T09:25:08.002Z,7.70
2023-01-15T09:27:39.103Z,7.50
2023-01-15T09:30:11.822Z,7.70
2023-01-15T09:32:40.815Z,8.00
2023-01-15T09:35:10.037Z,8.10
2023-01-15T09:37:38.184Z,8.30
2023-01-15T09:40:09.216Z,8.30
2023-01-15T09:42:48.962Z,8.30
2023-01-15T09:45:26.314Z,8.30
2023-01-15T09:48:30.740Z,8.50
2023-01-15T09:51:19.697Z,8.20
2023-01-15T09:54:05.445Z,8.20
2023-01-15T09:56:37.594Z,7.70
2023-01-15T09:59:16.461Z,7.40
2023-01-15T10:01:46.561Z,7.10
2023-01-15T10:04:21.312Z,7.30
2023-01-15T10:06:57.047Z,7.50
2023-01-15T10:09:35.054Z,7.70
2023-01-15T10:12:30.516Z,7.70
2023-01-15T10:15:03.540Z,7.90
2023-01-15T10:17:41.515Z,7.70
2023-01-15T10:20:18.513Z,7.80
2023-01-15T10:22:59.588Z,7.90
2023-01-15T10:25:35.183Z,7.90
2023-01-15T10:28:18.258Z,7.80
2023-01-15T10:30:51.661Z,7.50
2023-01-15T10:33:54.683Z,7.60
2023-01-15T10:36:26.128Z,7.50
2023-01-15T10:39:03.011Z,7.50
2023-01-15T10:41:40.513Z,7.80
2023-01-15T10:44:16.124Z,7.70
2023-01-15T10:46:56.068Z,7.60
